CheckWX is a tool to help pilots better visualize weather data.  It is not intended as a substitute for an official pre-flight weather briefing.

00:38:09 UTC

LFPM METAR
Melun-Villaroche Air Base Airport
Melun/Villaroche, France
Current

38 mins ago

LFPM 060000Z AUTO 20006KT 180V250 0650 FZFG VV/// M00/M01 Q1021
Observed
Dec-6 @ 00:00 UTC
Wind
  • 200° at 6 KTS
Visibility
600 meters
Flight Rules
LIFR
Conditions
Freezing Fog
Cloud Levels
  • Vertical visibility
Temperature
C / 32°F
Dewpoint
-1°C / 30°F
Humidity
93%
Altimeter
30.15" Hg
Pressure
1020.92 hPa
Previous

1 hour ago

LFPM 052330Z AUTO 22004KT 0650 FZFG VV/// M00/M01 Q1022
Observed
Dec-5 @ 23:30 UTC
Wind
  • 220° at 4 KTS
Visibility
600 meters
Flight Rules
LIFR
Conditions
Freezing Fog
Cloud Levels
  • Vertical visibility
Temperature
C / 32°F
Dewpoint
-1°C / 30°F
Humidity
93%
Altimeter
30.18" Hg
Pressure
1021.92 hPa
Previous

2 hours ago

LFPM 052300Z AUTO 20003KT 0650 FZFG VV/// M00/M01 Q1022
Observed
Dec-5 @ 23:00 UTC
Wind
  • 200° at 3 KTS
Visibility
600 meters
Flight Rules
LIFR
Conditions
Freezing Fog
Cloud Levels
  • Vertical visibility
Temperature
C / 32°F
Dewpoint
-1°C / 30°F
Humidity
93%
Altimeter
30.18" Hg
Pressure
1021.92 hPa